Time;durP1;ratioP1;P1;durP2;ratioP2;P2;SDS_P1;SDS_P2;PMS_P1;PMS_P2;Temp;Humidity;BMP_temperature;BMP_pressure;BME280_temperature;BME280_humidity;BME280_pressure;Samples;Min_cycle;Max_cycle;Signal;HPM_P1;HPM_P2
2023/03/02 00:03:59;;;;;;;2.83;1.30;;;;;;;18.25;25.55;102247.28;16116079;19;130057;-43
2023/03/02 00:09:21;;;;;;;2.50;1.20;;;;;;;18.21;25.54;102261.75;16112015;19;130197;-42
2023/03/02 00:14:43;;;;;;;2.05;1.35;;;;;;;18.18;25.42;102260.25;16112285;19;130031;-42
2023/03/02 00:20:09;;;;;;;1.88;1.10;;;;;;;18.17;25.27;102257.69;16113544;19;129562;-42
2023/03/02 00:25:30;;;;;;;1.30;1.10;;;;;;;18.12;25.18;102267.47;16112104;19;130302;-43
2023/03/02 00:30:52;;;;;;;1.58;1.00;;;;;;;18.11;25.60;102276.00;16112591;19;130689;-42
2023/03/02 00:36:18;;;;;;;1.50;1.00;;;;;;;18.10;25.32;102269.59;16123759;19;135496;-46
2023/03/02 00:41:39;;;;;;;1.50;0.80;;;;;;;18.06;25.37;102262.78;16126354;19;130497;-43
2023/03/02 00:47:01;;;;;;;1.35;1.10;;;;;;;18.04;25.58;102259.38;16127885;19;128956;-44
2023/03/02 00:52:23;;;;;;;2.03;1.30;;;;;;;18.02;25.36;102255.97;16125687;19;130680;-44
2023/03/02 00:57:53;;;;;;;2.28;1.00;;;;;;;17.98;25.24;102250.00;16125573;19;129638;-42
2023/03/02 01:03:15;;;;;;;1.83;1.25;;;;;;;17.97;25.66;102244.69;16125761;19;131237;-44
2023/03/02 01:08:37;;;;;;;2.67;1.30;;;;;;;17.95;25.39;102249.56;16118196;19;131640;-43
2023/03/02 01:13:59;;;;;;;1.70;1.25;;;;;;;17.92;25.21;102241.69;16121855;19;129451;-43
2023/03/02 01:19:20;;;;;;;1.63;1.15;;;;;;;17.89;25.46;102229.13;16122015;19;129353;-43
2023/03/02 01:24:42;;;;;;;1.58;1.10;;;;;;;17.86;25.35;102229.53;16117716;19;129591;-41
2023/03/02 01:30:05;;;;;;;1.80;1.10;;;;;;;17.84;25.71;102232.50;16119235;19;129618;-43
2023/03/02 01:35:26;;;;;;;1.30;1.00;;;;;;;17.81;25.54;102221.84;16114207;19;131068;-44
2023/03/02 01:40:48;;;;;;;0.77;0.77;;;;;;;17.80;25.78;102225.69;16119742;19;129656;-43
2023/03/02 01:46:21;;;;;;;1.27;1.05;;;;;;;17.78;25.30;102208.41;16115997;19;131478;-43
2023/03/02 01:51:46;;;;;;;1.88;1.30;;;;;;;17.73;25.63;102202.66;16115444;19;131230;-41
2023/03/02 01:57:09;;;;;;;1.38;1.10;;;;;;;17.72;25.61;102213.94;16118637;19;130123;-41
2023/03/02 02:02:31;;;;;;;2.17;1.00;;;;;;;17.69;25.50;102201.38;16114979;19;135078;-42
2023/03/02 02:07:53;;;;;;;2.28;1.10;;;;;;;17.67;25.69;102198.81;15964451;19;2948758;-44
2023/03/02 02:13:15;;;;;;;1.25;0.85;;;;;;;17.65;25.36;102205.63;16123552;19;131051;-42
2023/03/02 02:18:39;;;;;;;1.65;0.98;;;;;;;17.64;25.41;102190.06;16118924;19;131297;-44
2023/03/02 02:24:19;;;;;;;1.42;1.00;;;;;;;17.61;25.80;102182.19;16119399;19;131044;-42
2023/03/02 02:29:45;;;;;;;2.05;0.90;;;;;;;17.59;25.36;102173.25;16117223;19;130236;-43
2023/03/02 02:35:26;;;;;;;1.42;1.10;;;;;;;17.58;25.38;102166.84;16123504;19;129782;-50
2023/03/02 02:40:53;;;;;;;2.25;1.27;;;;;;;17.54;25.58;102179.34;16122430;19;129816;-43
2023/03/02 02:46:15;;;;;;;1.10;0.90;;;;;;;17.52;25.75;102171.28;16121788;19;130926;-43
2023/03/02 02:51:37;;;;;;;2.72;1.10;;;;;;;17.49;25.36;102166.16;16114014;19;129397;-44
2023/03/02 02:57:02;;;;;;;1.77;1.00;;;;;;;17.49;25.53;102168.06;16120049;19;130478;-42
2023/03/02 03:02:26;;;;;;;1.47;1.10;;;;;;;17.46;25.78;102168.50;16120903;19;129066;-41
2023/03/02 03:07:48;;;;;;;1.55;1.15;;;;;;;17.45;25.55;102169.53;16116906;19;131334;-41
2023/03/02 03:13:11;;;;;;;1.42;0.90;;;;;;;17.43;25.71;102169.75;16120283;19;132112;-42
2023/03/02 03:18:32;;;;;;;2.70;1.48;;;;;;;17.41;25.74;102163.59;16123988;19;129563;-44
2023/03/02 03:23:54;;;;;;;1.42;1.00;;;;;;;17.38;25.62;102155.69;16118288;19;131377;-44
2023/03/02 03:29:18;;;;;;;1.42;1.08;;;;;;;17.36;25.74;102158.69;16116996;19;129590;-43
2023/03/02 03:34:39;;;;;;;1.70;0.95;;;;;;;17.35;25.82;102161.66;16115721;19;130240;-45
2023/03/02 03:40:02;;;;;;;0.90;0.90;;;;;;;17.32;25.53;102156.53;16114692;19;130368;-44
2023/03/02 03:45:24;;;;;;;1.92;1.00;;;;;;;17.32;25.52;102153.78;16116674;19;130091;-42
2023/03/02 03:50:46;;;;;;;2.20;1.20;;;;;;;17.30;25.46;102153.13;16117299;19;131006;-46
2023/03/02 03:56:08;;;;;;;2.25;1.10;;;;;;;17.28;25.45;102158.00;16112908;19;130299;-44
2023/03/02 04:01:33;;;;;;;1.55;1.25;;;;;;;17.26;25.30;102160.97;16116770;19;130719;-44
2023/03/02 04:06:56;;;;;;;1.25;1.00;;;;;;;17.24;25.63;102163.09;16111171;19;129861;-42
2023/03/02 04:12:18;;;;;;;1.60;1.30;;;;;;;17.22;25.29;102154.16;16117352;19;130360;-42
2023/03/02 04:17:39;;;;;;;1.25;0.98;;;;;;;17.20;25.79;102150.72;16111693;19;129455;-42
2023/03/02 04:23:01;;;;;;;1.38;1.00;;;;;;;17.18;25.50;102156.47;16113503;19;129511;-44
2023/03/02 04:28:23;;;;;;;1.20;0.93;;;;;;;17.17;25.66;102159.47;16111376;19;128978;-42
2023/03/02 04:33:45;;;;;;;2.05;1.10;;;;;;;17.15;25.80;102162.41;16110828;19;131456;-41
2023/03/02 04:39:07;;;;;;;1.10;0.90;;;;;;;17.15;25.74;102164.34;16113714;19;129523;-41
2023/03/02 04:44:29;;;;;;;3.05;1.05;;;;;;;17.14;25.67;102176.47;16110815;19;136001;-43
2023/03/02 04:49:53;;;;;;;1.98;1.10;;;;;;;17.12;25.37;102178.56;16112041;19;129202;-42
2023/03/02 04:55:21;;;;;;;1.23;0.95;;;;;;;17.10;25.50;102181.56;16110116;19;129513;-51
2023/03/02 05:00:43;;;;;;;1.10;1.00;;;;;;;17.07;25.59;102166.22;16110868;19;129445;-48
2023/03/02 05:06:05;;;;;;;1.25;1.05;;;;;;;17.05;25.30;102175.78;16110098;19;131062;-52
2023/03/02 05:11:27;;;;;;;1.35;1.10;;;;;;;17.03;25.62;102172.34;16112910;19;129735;-51
2023/03/02 05:16:49;;;;;;;1.50;1.15;;;;;;;17.01;25.41;102178.09;16111673;19;130257;-49
2023/03/02 05:22:11;;;;;;;2.70;0.95;;;;;;;16.98;25.43;102174.91;16125084;19;129979;-47
2023/03/02 05:27:33;;;;;;;1.58;1.17;;;;;;;16.98;25.52;102172.13;16128992;19;130358;-49
2023/03/02 05:32:55;;;;;;;2.08;1.20;;;;;;;16.97;25.21;102184.25;16125639;19;129417;-52
2023/03/02 05:38:16;;;;;;;1.27;1.00;;;;;;;16.95;25.70;102186.34;16127060;19;130418;-51
2023/03/02 05:43:39;;;;;;;2.03;1.08;;;;;;;16.93;25.36;102181.00;16125205;19;130582;-47
2023/03/02 05:49:01;;;;;;;1.48;1.30;;;;;;;16.91;25.64;102177.63;16121897;19;131271;-41
2023/03/02 05:54:23;;;;;;;1.88;1.30;;;;;;;16.89;25.47;102188.88;16125130;19;130453;-45
2023/03/02 05:59:45;;;;;;;2.53;1.30;;;;;;;16.87;25.40;102188.22;16120748;19;130873;-47
2023/03/02 06:05:10;;;;;;;1.63;1.10;;;;;;;16.89;25.67;102185.28;16122395;19;130678;-44
2023/03/02 06:10:33;;;;;;;1.50;1.20;;;;;;;17.10;25.50;102181.56;16125318;19;129621;-43
2023/03/02 06:15:55;;;;;;;1.10;0.90;;;;;;;17.68;25.03;102199.66;16123057;19;131023;-46
2023/03/02 06:21:17;;;;;;;1.27;1.10;;;;;;;18.25;24.79;102193.78;16123540;19;129614;-46
2023/03/02 06:26:39;;;;;;;1.42;1.15;;;;;;;18.73;24.67;102190.78;16123335;19;130877;-42
2023/03/02 06:32:01;;;;;;;12.35;1.42;;;;;;;19.15;24.31;102192.38;16116020;19;130205;-42
2023/03/02 06:37:23;;;;;;;8.10;1.92;;;;;;;19.49;23.90;102185.66;16121417;19;132331;-42
2023/03/02 06:42:45;;;;;;;4.70;1.60;;;;;;;19.72;23.52;102191.69;16122376;19;131768;-42
2023/03/02 06:48:07;;;;;;;7.97;1.80;;;;;;;19.76;23.74;102187.41;16121112;19;130725;-42
2023/03/02 06:53:28;;;;;;;4.78;1.80;;;;;;;19.70;23.66;102186.38;16119369;19;130359;-41
2023/03/02 06:58:50;;;;;;;8.57;1.83;;;;;;;19.59;23.64;102193.47;16117463;19;129870;-42
2023/03/02 07:04:12;;;;;;;8.73;2.58;;;;;;;19.45;23.96;102198.25;16114629;19;130189;-41
2023/03/02 07:09:34;;;;;;;13.18;2.60;;;;;;;19.33;23.86;102200.03;16118855;19;129332;-41
2023/03/02 07:14:56;;;;;;;15.73;2.65;;;;;;;19.23;24.28;102200.47;16120391;19;129246;-40
2023/03/02 07:20:18;;;;;;;13.32;3.30;;;;;;;19.14;23.82;102202.59;16119717;19;129702;-43
2023/03/02 07:25:40;;;;;;;7.60;3.00;;;;;;;19.06;24.13;102200.94;16115249;19;130305;-41
2023/03/02 07:31:01;;;;;;;8.88;2.72;;;;;;;18.99;24.48;102205.66;16117877;19;129683;-40
2023/03/02 07:36:25;;;;;;;8.23;2.88;;;;;;;19.08;24.57;102204.34;16115150;19;129641;-41
2023/03/02 07:41:46;;;;;;;7.43;3.00;;;;;;;19.41;24.42;102215.56;16114516;19;129672;-40
2023/03/02 07:47:08;;;;;;;9.85;2.78;;;;;;;19.88;23.94;102213.41;16117371;19;129635;-41
2023/03/02 07:52:30;;;;;;;7.90;2.40;;;;;;;20.32;23.82;102213.53;16116494;19;131372;-42
2023/03/02 07:57:52;;;;;;;14.50;2.75;;;;;;;20.85;23.33;102206.63;16117852;19;129704;-42
2023/03/02 08:03:14;;;;;;;12.30;2.42;;;;;;;22.65;21.54;102214.63;16115292;19;129942;-42
2023/03/02 08:08:36;;;;;;;4.28;2.20;;;;;;;24.24;20.15;102214.31;16112529;19;128921;-49
2023/03/02 08:14:00;;;;;;;4.13;2.20;;;;;;;25.45;18.97;102211.00;16117487;19;130631;-46
2023/03/02 08:19:21;;;;;;;6.93;2.40;;;;;;;27.32;17.47;102207.72;16116609;19;129219;-51
2023/03/02 08:24:43;;;;;;;4.13;2.25;;;;;;;28.45;16.31;102209.84;16115109;19;130131;-42
2023/03/02 08:30:07;;;;;;;4.93;2.25;;;;;;;29.27;15.85;102214.47;16116751;19;129321;-43
2023/03/02 08:35:28;;;;;;;3.90;2.28;;;;;;;29.88;15.36;102214.44;16113085;19;129718;-43
2023/03/02 08:40:51;;;;;;;4.70;2.30;;;;;;;28.13;16.04;102212.97;16110481;19;131277;-41
2023/03/02 08:46:17;;;;;;;4.60;2.70;;;;;;;25.63;17.59;102207.03;16113587;19;129597;-41
2023/03/02 08:51:38;;;;;;;4.97;2.40;;;;;;;24.02;18.89;102207.72;16109298;19;131368;-44
2023/03/02 08:57:01;;;;;;;5.82;2.50;;;;;;;22.89;19.89;102198.75;16122081;19;129542;-44
2023/03/02 09:02:23;;;;;;;9.60;2.70;;;;;;;22.11;20.67;102201.56;16126847;19;130381;-44
2023/03/02 09:07:45;;;;;;;4.05;2.60;;;;;;;21.50;21.12;102202.47;16125946;19;129477;-43
2023/03/02 09:13:07;;;;;;;3.38;2.50;;;;;;;21.05;21.69;102191.63;16126945;19;130283;-45
2023/03/02 09:18:29;;;;;;;5.30;2.63;;;;;;;20.70;21.85;102192.22;16126423;19;132864;-40
2023/03/02 09:23:54;;;;;;;3.40;2.30;;;;;;;20.39;22.29;102186.53;16126041;19;129390;-42
2023/03/02 09:29:16;;;;;;;2.87;2.43;;;;;;;20.14;22.92;102192.94;16123733;19;129561;-39
2023/03/02 09:34:37;;;;;;;4.57;2.90;;;;;;;19.94;23.21;102173.59;16122914;19;129443;-40
2023/03/02 09:39:59;;;;;;;4.25;2.47;;;;;;;19.77;23.05;102184.41;16122855;19;131739;-41
2023/03/02 09:45:46;;;;;;;3.72;2.58;;;;;;;19.58;23.51;102180.66;16122755;19;129799;-41
2023/03/02 09:51:23;;;;;;;4.32;3.10;;;;;;;19.41;23.67;102173.94;16123027;19;132270;-43
2023/03/02 09:56:53;;;;;;;4.32;2.92;;;;;;;19.31;23.77;102172.50;16125168;19;130710;-43
2023/03/02 10:02:34;;;;;;;5.00;2.63;;;;;;;19.19;23.93;102182.56;16121869;19;130957;-41
2023/03/02 10:07:56;;;;;;;4.20;3.03;;;;;;;19.07;23.55;102168.50;16121573;19;130422;-40
2023/03/02 10:13:29;;;;;;;3.20;2.80;;;;;;;18.98;24.02;102170.66;16124019;19;130537;-42
2023/03/02 10:19:01;;;;;;;2.95;2.67;;;;;;;18.89;23.73;102169.22;16122667;19;130622;-43
2023/03/02 10:24:39;;;;;;;4.03;3.08;;;;;;;18.82;24.23;102176.69;16123761;19;131092;-43
2023/03/02 10:30:18;;;;;;;5.43;3.28;;;;;;;18.72;24.26;102171.59;16121366;19;129581;-44
2023/03/02 10:35:48;;;;;;;3.85;2.45;;;;;;;18.63;24.00;102162.66;16122759;19;130836;-41
2023/03/02 10:41:17;;;;;;;3.85;2.70;;;;;;;18.56;24.43;102167.38;16122622;19;129415;-41
2023/03/02 10:46:44;;;;;;;3.75;2.53;;;;;;;18.50;24.17;102155.22;16120760;19;130667;-42
2023/03/02 10:52:16;;;;;;;4.75;3.10;;;;;;;18.43;24.09;102159.91;16118917;19;129686;-40
2023/03/02 10:57:40;;;;;;;3.97;2.90;;;;;;;18.34;24.48;102153.69;16117800;19;130378;-43
2023/03/02 11:03:18;;;;;;;4.95;3.53;;;;;;;18.28;24.15;102146.25;16116294;19;131102;-42
2023/03/02 11:08:40;;;;;;;4.32;2.95;;;;;;;18.20;24.22;102146.50;16117468;19;129517;-43
2023/03/02 11:14:14;;;;;;;5.40;3.83;;;;;;;18.15;24.51;102145.19;16117571;19;129644;-41
2023/03/02 11:19:39;;;;;;;4.00;3.53;;;;;;;18.23;23.91;102143.28;16116469;19;130163;-46
2023/03/02 11:25:06;;;;;;;6.60;3.40;;;;;;;18.60;23.81;102146.44;16117720;19;129404;-46
2023/03/02 11:30:33;;;;;;;4.47;2.88;;;;;;;19.23;23.52;102139.44;16117100;19;129327;-41
2023/03/02 11:36:02;;;;;;;3.95;2.90;;;;;;;19.89;23.18;102145.66;16118097;19;130438;-44
2023/03/02 11:41:29;;;;;;;2.70;2.30;;;;;;;20.41;22.48;102134.34;16116239;19;129602;-44
2023/03/02 11:46:59;;;;;;;3.50;2.90;;;;;;;20.70;22.25;102134.69;16116691;19;130016;-44
2023/03/02 11:52:25;;;;;;;4.90;2.80;;;;;;;20.77;22.39;102131.88;16115668;19;130067;-40
2023/03/02 11:57:54;;;;;;;2.95;2.60;;;;;;;20.69;22.39;102123.78;16115296;19;129590;-40
2023/03/02 12:03:15;;;;;;;3.33;2.30;;;;;;;20.53;22.32;102120.53;16113013;19;129822;-43
2023/03/02 12:08:41;;;;;;;3.15;2.38;;;;;;;20.36;22.63;102123.06;16112815;19;129978;-40
2023/03/02 12:14:04;;;;;;;;;;;;;;;20.15;22.89;102116.00;16118065;19;130295;-41
2023/03/02 12:19:37;;;;;;;3.15;2.75;;;;;;;20.01;22.94;102112.47;16112766;19;129397;-40
2023/03/02 12:25:19;;;;;;;3.33;2.53;;;;;;;19.84;23.22;102106.59;16114739;19;130394;-46
2023/03/02 12:30:40;;;;;;;4.38;2.83;;;;;;;19.64;23.29;102107.63;16121227;19;129307;-40
2023/03/02 12:36:11;;;;;;;4.43;3.15;;;;;;;19.51;23.29;102102.16;16130445;19;129314;-41
2023/03/02 12:42:07;;;;;;;3.85;2.50;;;;;;;19.37;23.07;102098.63;16129756;19;129533;-41
2023/03/02 12:47:30;;;;;;;4.68;2.33;;;;;;;19.25;23.74;102092.06;16132588;19;129237;-40
2023/03/02 12:53:01;;;;;;;3.33;2.40;;;;;;;19.16;23.73;102086.75;16130946;19;129713;-41
2023/03/02 12:58:27;;;;;;;3.13;2.35;;;;;;;19.06;23.47;102090.00;16129656;19;130318;-41
2023/03/02 13:03:51;;;;;;;4.53;2.75;;;;;;;18.97;23.79;102071.91;16129237;19;130647;-41
2023/03/02 13:09:14;;;;;;;3.17;2.70;;;;;;;18.89;23.65;102066.63;16126900;19;129822;-40
2023/03/02 13:14:40;;;;;;;3.75;2.90;;;;;;;18.81;24.00;102058.56;16126478;19;129917;-42
2023/03/02 13:20:03;;;;;;;3.45;2.47;;;;;;;18.72;23.98;102061.56;16127464;19;129472;-40
2023/03/02 13:25:30;;;;;;;3.58;2.30;;;;;;;18.67;24.10;102050.28;16124568;19;130375;-42
2023/03/02 13:31:01;;;;;;;3.22;2.78;;;;;;;18.64;24.02;102047.13;16126305;19;130582;-42
2023/03/02 13:36:37;;;;;;;4.32;3.00;;;;;;;18.57;24.11;102042.44;16124725;19;131041;-44
2023/03/02 13:42:01;;;;;;;3.77;2.40;;;;;;;18.52;24.11;102044.16;16122164;19;129620;-41
2023/03/02 13:47:23;;;;;;;4.10;2.83;;;;;;;18.48;23.94;102042.88;16122562;19;130484;-42
2023/03/02 13:52:45;;;;;;;3.33;2.78;;;;;;;18.43;24.30;102041.63;16126183;19;130482;-42
2023/03/02 13:58:15;;;;;;;3.78;2.53;;;;;;;18.41;24.20;102032.69;16123314;19;129308;-41
2023/03/02 14:03:36;;;;;;;2.67;2.33;;;;;;;18.34;24.05;102037.34;16125691;19;130590;-43
2023/03/02 14:08:58;;;;;;;3.38;2.53;;;;;;;18.31;24.10;102032.25;16123873;19;130376;-42
2023/03/02 14:14:23;;;;;;;5.03;3.33;;;;;;;18.26;24.00;102026.50;16121164;19;129669;-42
2023/03/02 14:19:51;;;;;;;4.73;3.47;;;;;;;18.19;24.25;102018.22;16121116;19;130039;-41
2023/03/02 14:25:14;;;;;;;5.97;3.67;;;;;;;18.13;24.19;102013.56;16124743;19;129354;-41
2023/03/02 14:30:35;;;;;;;5.63;2.83;;;;;;;18.10;24.46;102009.28;16122902;19;130456;-41
2023/03/02 14:35:58;;;;;;;7.53;3.17;;;;;;;18.08;24.01;102007.81;16125722;19;131552;-41
2023/03/02 14:41:23;;;;;;;5.72;3.40;;;;;;;18.06;24.06;102009.94;16122105;19;129756;-43
2023/03/02 14:46:44;;;;;;;4.43;3.00;;;;;;;18.03;24.49;102004.84;16119871;19;130133;-42
2023/03/02 14:52:25;;;;;;;4.43;2.97;;;;;;;18.00;24.59;102006.09;16120631;19;129436;-40
2023/03/02 14:58:02;;;;;;;3.80;2.90;;;;;;;18.02;24.52;101995.69;16122282;19;129508;-40
2023/03/02 15:03:28;;;;;;;4.05;2.88;;;;;;;18.15;24.17;101992.88;16118509;19;130091;-42
2023/03/02 15:08:50;;;;;;;3.85;2.67;;;;;;;18.33;23.89;101991.34;16120993;19;130231;-40
2023/03/02 15:14:11;;;;;;;3.83;2.78;;;;;;;18.49;23.92;101980.84;16121423;19;129870;-43
2023/03/02 15:19:33;;;;;;;4.35;2.88;;;;;;;18.58;23.70;101976.78;16119260;19;129967;-41
2023/03/02 15:24:55;;;;;;;3.95;2.58;;;;;;;18.62;23.62;101972.47;16117680;19;129495;-40
2023/03/02 15:30:18;;;;;;;11.20;2.70;;;;;;;18.62;23.76;101978.03;16119160;19;129660;-40
2023/03/02 15:35:40;;;;;;;6.45;2.90;;;;;;;18.57;24.55;101986.16;16117585;19;129402;-40
2023/03/02 15:41:11;;;;;;;3.72;2.80;;;;;;;18.52;25.38;101975.75;16117331;19;129410;-40
2023/03/02 15:46:33;;;;;;;3.63;2.33;;;;;;;18.58;26.06;101977.63;16120708;19;131735;-41
2023/03/02 15:51:58;;;;;;;3.08;2.30;;;;;;;18.73;26.48;101971.78;16121055;19;129702;-40
2023/03/02 15:57:20;;;;;;;3.60;2.35;;;;;;;18.95;26.27;101982.56;16117573;19;131348;-39
2023/03/02 16:02:42;;;;;;;3.55;2.38;;;;;;;19.15;26.51;101978.78;16116314;19;129403;-39
2023/03/02 16:08:04;;;;;;;3.05;2.20;;;;;;;19.27;26.52;101981.72;16117055;19;130218;-43
2023/03/02 16:13:27;;;;;;;4.72;3.00;;;;;;;19.30;26.13;101979.34;16114547;19;129469;-41
2023/03/02 16:18:53;;;;;;;3.85;2.80;;;;;;;19.30;26.57;101993.22;16117280;19;129529;-46
2023/03/02 16:24:15;;;;;;;5.18;2.50;;;;;;;19.25;26.71;101987.50;16112687;19;130282;-40
2023/03/02 16:29:37;;;;;;;3.83;2.55;;;;;;;19.19;26.73;101994.75;16114144;19;129389;-39
2023/03/02 16:34:59;;;;;;;2.40;1.75;;;;;;;19.12;27.04;102001.41;16114897;19;129797;-40
2023/03/02 16:40:21;;;;;;;3.90;2.45;;;;;;;19.01;27.40;102006.59;16112620;19;130187;-40
2023/03/02 16:45:43;;;;;;;3.63;2.40;;;;;;;18.89;27.41;102012.00;16113500;19;130037;-40
2023/03/02 16:51:06;;;;;;;5.55;2.90;;;;;;;18.78;26.68;102012.69;16111846;19;130227;-40
2023/03/02 16:56:28;;;;;;;4.55;3.03;;;;;;;18.69;26.81;102022.34;16112943;19;130894;-40
2023/03/02 17:01:50;;;;;;;6.13;3.20;;;;;;;18.60;26.38;102021.72;16114038;19;130130;-40
2023/03/02 17:07:12;;;;;;;7.38;2.88;;;;;;;18.51;26.94;102028.59;16111544;19;129599;-48
2023/03/02 17:12:34;;;;;;;8.27;3.13;;;;;;;18.45;26.76;102033.97;16110564;19;129485;-47
2023/03/02 17:17:55;;;;;;;5.07;3.15;;;;;;;18.39;26.79;102040.34;16120135;19;131010;-51
2023/03/02 17:23:17;;;;;;;6.22;2.53;;;;;;;18.34;26.84;102053.13;16123176;19;130144;-47
2023/03/02 17:28:39;;;;;;;5.80;3.03;;;;;;;18.30;27.15;102056.31;16124619;19;130363;-44
2023/03/02 17:34:01;;;;;;;6.75;2.72;;;;;;;18.26;26.96;102063.38;16125339;19;131217;-43
2023/03/02 17:39:23;;;;;;;4.63;2.63;;;;;;;18.21;27.67;102071.47;16123977;19;130718;-41
2023/03/02 17:44:45;;;;;;;4.32;2.42;;;;;;;18.29;27.89;102089.78;16128616;19;129450;-42
2023/03/02 17:50:07;;;;;;;3.20;2.10;;;;;;;18.44;27.71;102093.22;16116171;19;130276;-41
2023/03/02 17:55:29;;;;;;;5.93;2.25;;;;;;;18.58;27.84;102099.56;16124666;19;129464;-41
2023/03/02 18:00:51;;;;;;;2.60;2.10;;;;;;;18.67;27.79;102113.19;16123098;19;129810;-43
2023/03/02 18:06:16;;;;;;;5.53;2.05;;;;;;;18.69;28.06;102122.13;16125318;19;130864;-41
2023/03/02 18:11:41;;;;;;;2.92;1.88;;;;;;;18.67;27.87;102130.69;16122405;19;130309;-41
2023/03/02 18:17:03;;;;;;;3.65;1.98;;;;;;;18.62;28.24;102133.22;16120853;19;130679;-41
2023/03/02 18:22:25;;;;;;;3.25;2.35;;;;;;;18.55;28.20;102144.34;16119568;19;130766;-43
2023/03/02 18:27:47;;;;;;;2.72;1.92;;;;;;;18.49;28.02;102150.75;16119877;19;129443;-41
2023/03/02 18:33:09;;;;;;;3.42;2.00;;;;;;;18.51;28.29;102154.16;16122244;19;130425;-42
2023/03/02 18:38:32;;;;;;;4.20;1.98;;;;;;;18.61;28.05;102159.25;16039108;19;129863;-44
2023/03/02 18:43:55;;;;;;;4.05;2.30;;;;;;;18.93;28.02;102153.84;16122288;19;130429;-41
2023/03/02 18:49:16;;;;;;;7.93;1.80;;;;;;;19.43;27.94;102158.78;16116784;19;130055;-41
2023/03/02 18:54:38;;;;;;;11.85;2.15;;;;;;;20.03;27.52;102165.88;16118244;19;130347;-41
2023/03/02 19:00:00;;;;;;;21.08;2.63;;;;;;;20.54;27.02;102172.28;16118924;19;130687;-40
2023/03/02 19:05:25;;;;;;;6.57;1.92;;;;;;;20.94;26.77;102184.94;16119283;19;129260;-46
2023/03/02 19:10:48;;;;;;;13.65;2.13;;;;;;;21.21;26.96;102188.25;16120946;19;129669;-42
2023/03/02 19:16:10;;;;;;;7.88;1.85;;;;;;;21.42;26.59;102194.38;16122677;19;130151;-41
2023/03/02 19:21:32;;;;;;;6.47;2.38;;;;;;;21.48;26.60;102187.03;16118469;19;130981;-42
2023/03/02 19:26:54;;;;;;;18.48;2.67;;;;;;;21.44;26.48;102197.78;16117704;19;131768;-41
2023/03/02 19:32:15;;;;;;;10.05;2.13;;;;;;;21.32;26.58;102191.31;16114362;19;131098;-41
2023/03/02 19:37:37;;;;;;;12.85;2.00;;;;;;;21.13;27.22;102196.06;16111727;19;129643;-43
2023/03/02 19:42:59;;;;;;;17.92;2.20;;;;;;;20.92;26.98;102198.22;16117258;19;129939;-42
2023/03/02 19:48:21;;;;;;;14.70;2.10;;;;;;;20.72;27.48;102202.06;16117410;19;129310;-41
2023/03/02 19:53:45;;;;;;;10.52;1.92;;;;;;;20.53;27.78;102198.38;16115842;19;129504;-42
2023/03/02 19:59:09;;;;;;;13.38;2.33;;;;;;;20.37;28.30;102193.41;16119880;19;130219;-46
2023/03/02 20:04:31;;;;;;;6.80;1.60;;;;;;;20.21;28.21;102206.78;16113322;19;130948;-47
2023/03/02 20:09:54;;;;;;;5.53;2.00;;;;;;;20.07;28.16;102205.16;16120531;19;129604;-43
2023/03/02 20:15:16;;;;;;;10.10;1.98;;;;;;;19.94;28.33;102204.16;16117475;19;129689;-42
2023/03/02 20:20:38;;;;;;;13.05;2.20;;;;;;;19.83;28.47;102210.41;16113633;19;129293;-44
2023/03/02 20:25:59;;;;;;;11.07;2.10;;;;;;;19.81;28.50;102209.81;16116764;19;129505;-42
2023/03/02 20:31:23;;;;;;;4.53;1.90;;;;;;;19.88;28.41;102215.34;16114869;19;129198;-44
2023/03/02 20:36:45;;;;;;;6.43;2.10;;;;;;;20.10;28.37;102215.84;16114355;19;129629;-47
2023/03/02 20:42:08;;;;;;;10.77;2.45;;;;;;;20.36;28.28;102231.47;16114650;19;129263;-42
2023/03/02 20:47:31;;;;;;;4.45;1.60;;;;;;;20.48;28.10;102220.44;16115632;19;130202;-41
2023/03/02 20:52:53;;;;;;;7.03;1.95;;;;;;;20.50;28.07;102225.75;16126031;19;129601;-45
2023/03/02 20:58:15;;;;;;;7.38;2.00;;;;;;;20.44;27.99;102221.97;16131190;19;130006;-42
2023/03/02 21:03:37;;;;;;;5.28;1.92;;;;;;;20.34;28.03;102233.63;16128197;19;130012;-43
2023/03/02 21:09:04;;;;;;;10.43;2.22;;;;;;;20.21;28.19;102236.50;16123541;19;131330;-43
2023/03/02 21:14:26;;;;;;;7.78;2.28;;;;;;;20.07;28.38;102241.28;16129439;19;129949;-42
2023/03/02 21:19:48;;;;;;;8.48;2.20;;;;;;;19.97;28.23;102247.31;16126124;19;129168;-43
2023/03/02 21:25:10;;;;;;;6.82;2.70;;;;;;;19.85;28.29;102255.50;16127363;19;131277;-41
2023/03/02 21:30:33;;;;;;;12.13;2.28;;;;;;;19.78;28.19;102251.91;16121962;19;132195;-43
2023/03/02 21:35:55;;;;;;;11.13;2.08;;;;;;;19.72;28.36;102258.34;16124502;19;129961;-40
2023/03/02 21:41:18;;;;;;;7.18;2.22;;;;;;;19.65;28.21;102258.38;16126217;19;129433;-43
2023/03/02 21:46:39;;;;;;;4.57;2.00;;;;;;;19.57;28.56;102251.13;16119483;19;131060;-41
2023/03/02 21:52:02;;;;;;;10.25;2.22;;;;;;;19.51;28.37;102246.47;16120531;19;129574;-43
2023/03/02 21:57:24;;;;;;;7.15;2.33;;;;;;;19.45;28.76;102250.13;16116521;19;131338;-42
2023/03/02 22:02:46;;;;;;;10.07;2.15;;;;;;;19.36;28.33;102239.28;16118325;19;129787;-42
2023/03/02 22:08:15;;;;;;;10.90;2.42;;;;;;;19.29;28.71;102238.47;16106099;19;130038;-42
2023/03/02 22:13:37;;;;;;;8.25;2.47;;;;;;;19.20;28.66;102239.75;16120057;19;129578;-43
2023/03/02 22:18:59;;;;;;;9.88;2.38;;;;;;;19.13;28.47;102241.66;16121414;19;130127;-46
2023/03/02 22:24:24;;;;;;;5.63;2.20;;;;;;;19.06;28.42;102234.25;16121919;19;131061;-41
2023/03/02 22:29:47;;;;;;;;;;;;;;;18.95;28.37;102237.69;16123978;19;129703;-41
2023/03/02 22:35:24;;;;;;;4.80;2.30;;;;;;;18.92;28.27;102235.34;16120911;19;129298;-41
2023/03/02 22:40:46;;;;;;;8.27;2.78;;;;;;;18.83;28.52;102244.94;16122465;19;129447;-41
2023/03/02 22:46:20;;;;;;;4.97;2.55;;;;;;;18.76;28.16;102243.03;16121317;19;129334;-44
2023/03/02 22:51:43;;;;;;;6.07;2.10;;;;;;;18.70;28.43;102248.56;16113955;19;129961;-40
2023/03/02 22:57:15;;;;;;;3.45;2.88;;;;;;;18.65;27.94;102243.69;16118238;19;130564;-43
2023/03/02 23:02:41;;;;;;;4.88;3.00;;;;;;;18.58;28.28;102253.94;16113600;19;129819;-45
2023/03/02 23:08:18;;;;;;;5.50;3.40;;;;;;;18.52;27.78;102250.09;16116692;19;129442;-42
2023/03/02 23:13:40;;;;;;;5.38;2.85;;;;;;;18.44;28.10;102251.16;16117300;19;130636;-46
2023/03/02 23:19:02;;;;;;;3.83;3.03;;;;;;;18.40;28.13;102252.63;16116466;19;129602;-42
2023/03/02 23:24:24;;;;;;;5.75;2.88;;;;;;;18.34;27.99;102253.44;16116063;19;131024;-41
2023/03/02 23:29:46;;;;;;;3.30;2.70;;;;;;;18.31;27.73;102256.66;16116689;19;129537;-43
2023/03/02 23:35:09;;;;;;;7.45;3.10;;;;;;;18.24;27.77;102251.09;16114583;19;130549;-44
2023/03/02 23:40:30;;;;;;;3.58;3.00;;;;;;;18.20;27.58;102257.28;16116981;19;129567;-41
2023/03/02 23:45:52;;;;;;;5.00;3.50;;;;;;;18.15;27.64;102264.31;16113016;19;129541;-41
2023/03/02 23:51:14;;;;;;;5.50;3.72;;;;;;;18.12;27.65;102261.09;16118223;19;134624;-41
2023/03/02 23:56:37;;;;;;;4.00;3.35;;;;;;;18.06;27.95;102257.25;16112625;19;130953;-42
